sensor_id;sensor_type;location;lat;lon;timestamp;P1;durP1;ratioP1;P2;durP2;ratioP2
45011;SDS011;63444;48.148;11.542;2023-02-28T00:00:20;4.13;;;3.30;;
45011;SDS011;63444;48.148;11.542;2023-02-28T00:02:46;4.73;;;3.33;;
45011;SDS011;63444;48.148;11.542;2023-02-28T00:05:15;5.37;;;3.47;;
45011;SDS011;63444;48.148;11.542;2023-02-28T00:07:43;4.37;;;3.53;;
45011;SDS011;63444;48.148;11.542;2023-02-28T00:10:10;3.80;;;3.40;;
45011;SDS011;63444;48.148;11.542;2023-02-28T00:12:38;4.60;;;3.57;;
45011;SDS011;63444;48.148;11.542;2023-02-28T00:15:09;5.87;;;4.07;;
45011;SDS011;63444;48.148;11.542;2023-02-28T00:17:35;5.33;;;3.50;;
45011;SDS011;63444;48.148;11.542;2023-02-28T00:20:02;4.97;;;3.40;;
45011;SDS011;63444;48.148;11.542;2023-02-28T00:22:38;4.43;;;3.67;;
45011;SDS011;63444;48.148;11.542;2023-02-28T00:25:05;3.77;;;3.40;;
45011;SDS011;63444;48.148;11.542;2023-02-28T00:27:32;4.63;;;3.27;;
45011;SDS011;63444;48.148;11.542;2023-02-28T00:29:59;4.10;;;3.60;;
45011;SDS011;63444;48.148;11.542;2023-02-28T00:32:24;4.07;;;3.27;;
45011;SDS011;63444;48.148;11.542;2023-02-28T00:34:50;7.90;;;3.30;;
45011;SDS011;63444;48.148;11.542;2023-02-28T00:37:15;5.10;;;3.70;;
45011;SDS011;63444;48.148;11.542;2023-02-28T00:39:41;4.60;;;3.77;;
45011;SDS011;63444;48.148;11.542;2023-02-28T00:42:07;4.33;;;3.47;;
45011;SDS011;63444;48.148;11.542;2023-02-28T00:44:33;4.27;;;3.53;;
45011;SDS011;63444;48.148;11.542;2023-02-28T00:47:00;3.83;;;3.33;;
45011;SDS011;63444;48.148;11.542;2023-02-28T00:49:26;5.77;;;3.97;;
45011;SDS011;63444;48.148;11.542;2023-02-28T00:51:53;3.77;;;3.30;;
45011;SDS011;63444;48.148;11.542;2023-02-28T00:54:19;4.00;;;3.50;;
45011;SDS011;63444;48.148;11.542;2023-02-28T00:56:45;4.73;;;3.37;;
45011;SDS011;63444;48.148;11.542;2023-02-28T00:59:11;3.97;;;3.60;;
45011;SDS011;63444;48.148;11.542;2023-02-28T01:01:37;4.30;;;3.83;;
45011;SDS011;63444;48.148;11.542;2023-02-28T01:04:03;6.17;;;3.73;;
45011;SDS011;63444;48.148;11.542;2023-02-28T01:06:29;4.60;;;3.70;;
45011;SDS011;63444;48.148;11.542;2023-02-28T01:08:55;3.90;;;3.50;;
45011;SDS011;63444;48.148;11.542;2023-02-28T01:11:21;5.03;;;3.87;;
45011;SDS011;63444;48.148;11.542;2023-02-28T01:13:46;3.33;;;3.03;;
45011;SDS011;63444;48.148;11.542;2023-02-28T01:16:12;5.63;;;3.90;;
45011;SDS011;63444;48.148;11.542;2023-02-28T01:18:38;4.80;;;3.50;;
45011;SDS011;63444;48.148;11.542;2023-02-28T01:21:05;4.83;;;3.70;;
45011;SDS011;63444;48.148;11.542;2023-02-28T01:23:35;5.03;;;3.97;;
45011;SDS011;63444;48.148;11.542;2023-02-28T01:26:08;4.63;;;3.40;;
45011;SDS011;63444;48.148;11.542;2023-02-28T01:28:36;5.10;;;3.67;;
45011;SDS011;63444;48.148;11.542;2023-02-28T01:31:02;4.37;;;3.80;;
45011;SDS011;63444;48.148;11.542;2023-02-28T01:33:28;4.83;;;3.73;;
45011;SDS011;63444;48.148;11.542;2023-02-28T01:35:57;4.13;;;3.63;;
45011;SDS011;63444;48.148;11.542;2023-02-28T01:38:24;7.07;;;4.10;;
45011;SDS011;63444;48.148;11.542;2023-02-28T01:40:50;4.47;;;4.03;;
45011;SDS011;63444;48.148;11.542;2023-02-28T01:43:27;4.03;;;3.63;;
45011;SDS011;63444;48.148;11.542;2023-02-28T01:45:55;4.60;;;3.73;;
45011;SDS011;63444;48.148;11.542;2023-02-28T01:48:24;4.87;;;3.60;;
45011;SDS011;63444;48.148;11.542;2023-02-28T01:50:52;4.60;;;3.77;;
45011;SDS011;63444;48.148;11.542;2023-02-28T01:53:21;4.47;;;3.70;;
45011;SDS011;63444;48.148;11.542;2023-02-28T01:55:54;4.23;;;3.50;;
45011;SDS011;63444;48.148;11.542;2023-02-28T01:58:19;4.70;;;3.67;;
45011;SDS011;63444;48.148;11.542;2023-02-28T02:00:45;4.37;;;3.67;;
45011;SDS011;63444;48.148;11.542;2023-02-28T02:03:14;5.13;;;4.03;;
45011;SDS011;63444;48.148;11.542;2023-02-28T02:05:44;4.67;;;3.83;;
45011;SDS011;63444;48.148;11.542;2023-02-28T02:08:13;5.13;;;4.00;;
45011;SDS011;63444;48.148;11.542;2023-02-28T02:10:45;4.77;;;3.40;;
45011;SDS011;63444;48.148;11.542;2023-02-28T02:16:18;5.10;;;4.00;;
45011;SDS011;63444;48.148;11.542;2023-02-28T02:19:32;5.90;;;4.00;;
45011;SDS011;63444;48.148;11.542;2023-02-28T02:30:18;5.97;;;4.23;;
45011;SDS011;63444;48.148;11.542;2023-02-28T02:36:16;6.33;;;4.47;;
45011;SDS011;63444;48.148;11.542;2023-02-28T02:38:58;5.20;;;4.13;;
45011;SDS011;63444;48.148;11.542;2023-02-28T02:41:29;4.40;;;3.90;;
45011;SDS011;63444;48.148;11.542;2023-02-28T02:44:14;6.03;;;3.63;;
45011;SDS011;63444;48.148;11.542;2023-02-28T02:46:54;5.47;;;4.30;;
45011;SDS011;63444;48.148;11.542;2023-02-28T02:49:26;4.50;;;4.00;;
45011;SDS011;63444;48.148;11.542;2023-02-28T02:51:55;5.27;;;4.30;;
45011;SDS011;63444;48.148;11.542;2023-02-28T02:54:27;5.37;;;4.27;;
45011;SDS011;63444;48.148;11.542;2023-02-28T02:56:56;4.77;;;3.93;;
45011;SDS011;63444;48.148;11.542;2023-02-28T02:59:24;4.40;;;4.00;;
45011;SDS011;63444;48.148;11.542;2023-02-28T03:01:53;5.30;;;3.87;;
45011;SDS011;63444;48.148;11.542;2023-02-28T03:04:22;5.63;;;4.30;;
45011;SDS011;63444;48.148;11.542;2023-02-28T03:06:51;5.13;;;4.20;;
45011;SDS011;63444;48.148;11.542;2023-02-28T03:09:19;6.13;;;4.30;;
45011;SDS011;63444;48.148;11.542;2023-02-28T03:11:46;4.77;;;3.80;;
45011;SDS011;63444;48.148;11.542;2023-02-28T03:22:32;6.47;;;5.03;;
45011;SDS011;63444;48.148;11.542;2023-02-28T03:30:36;6.30;;;5.00;;
45011;SDS011;63444;48.148;11.542;2023-02-28T03:33:04;8.23;;;4.97;;
45011;SDS011;63444;48.148;11.542;2023-02-28T03:35:45;7.30;;;5.50;;
45011;SDS011;63444;48.148;11.542;2023-02-28T03:40:47;5.87;;;5.27;;
45011;SDS011;63444;48.148;11.542;2023-02-28T03:43:21;6.97;;;5.30;;
45011;SDS011;63444;48.148;11.542;2023-02-28T03:45:51;5.90;;;4.97;;
45011;SDS011;63444;48.148;11.542;2023-02-28T03:48:27;9.33;;;5.40;;
45011;SDS011;63444;48.148;11.542;2023-02-28T03:50:58;5.87;;;5.20;;
45011;SDS011;63444;48.148;11.542;2023-02-28T03:53:29;5.60;;;5.00;;
45011;SDS011;63444;48.148;11.542;2023-02-28T03:56:01;7.00;;;5.50;;
45011;SDS011;63444;48.148;11.542;2023-02-28T03:58:44;6.83;;;5.57;;
45011;SDS011;63444;48.148;11.542;2023-02-28T04:01:12;6.37;;;5.67;;
45011;SDS011;63444;48.148;11.542;2023-02-28T04:03:43;6.37;;;5.53;;
45011;SDS011;63444;48.148;11.542;2023-02-28T04:06:13;7.07;;;6.00;;
45011;SDS011;63444;48.148;11.542;2023-02-28T04:08:41;7.33;;;6.03;;
45011;SDS011;63444;48.148;11.542;2023-02-28T04:11:11;9.30;;;6.43;;
45011;SDS011;63444;48.148;11.542;2023-02-28T04:14:17;7.87;;;6.30;;
45011;SDS011;63444;48.148;11.542;2023-02-28T04:16:43;8.43;;;6.50;;
45011;SDS011;63444;48.148;11.542;2023-02-28T04:19:10;7.67;;;6.03;;
45011;SDS011;63444;48.148;11.542;2023-02-28T04:21:38;8.80;;;6.83;;
45011;SDS011;63444;48.148;11.542;2023-02-28T04:24:05;10.00;;;6.83;;
45011;SDS011;63444;48.148;11.542;2023-02-28T04:26:33;7.10;;;6.40;;
45011;SDS011;63444;48.148;11.542;2023-02-28T04:29:01;7.63;;;6.27;;
45011;SDS011;63444;48.148;11.542;2023-02-28T04:31:28;8.57;;;6.70;;
45011;SDS011;63444;48.148;11.542;2023-02-28T04:33:54;7.60;;;6.40;;
45011;SDS011;63444;48.148;11.542;2023-02-28T04:36:22;7.50;;;6.20;;
45011;SDS011;63444;48.148;11.542;2023-02-28T04:38:48;9.13;;;6.47;;
45011;SDS011;63444;48.148;11.542;2023-02-28T04:41:16;8.87;;;7.20;;
45011;SDS011;63444;48.148;11.542;2023-02-28T04:43:42;9.77;;;7.23;;
45011;SDS011;63444;48.148;11.542;2023-02-28T04:46:09;9.00;;;6.50;;
45011;SDS011;63444;48.148;11.542;2023-02-28T04:48:36;8.17;;;7.20;;
45011;SDS011;63444;48.148;11.542;2023-02-28T04:51:04;10.47;;;7.30;;
45011;SDS011;63444;48.148;11.542;2023-02-28T04:53:34;8.30;;;7.13;;
45011;SDS011;63444;48.148;11.542;2023-02-28T04:56:02;9.40;;;7.20;;
45011;SDS011;63444;48.148;11.542;2023-02-28T04:58:28;9.40;;;7.30;;
45011;SDS011;63444;48.148;11.542;2023-02-28T05:00:55;11.47;;;8.17;;
45011;SDS011;63444;48.148;11.542;2023-02-28T05:03:28;10.13;;;8.03;;
45011;SDS011;63444;48.148;11.542;2023-02-28T05:05:53;9.70;;;6.70;;
45011;SDS011;63444;48.148;11.542;2023-02-28T05:08:19;8.80;;;7.77;;
45011;SDS011;63444;48.148;11.542;2023-02-28T05:10:44;10.57;;;8.13;;
45011;SDS011;63444;48.148;11.542;2023-02-28T05:13:13;9.23;;;7.70;;
45011;SDS011;63444;48.148;11.542;2023-02-28T05:15:38;11.20;;;8.63;;
45011;SDS011;63444;48.148;11.542;2023-02-28T05:18:04;9.87;;;8.10;;
45011;SDS011;63444;48.148;11.542;2023-02-28T05:20:30;10.37;;;8.43;;
45011;SDS011;63444;48.148;11.542;2023-02-28T05:22:56;10.40;;;7.93;;
45011;SDS011;63444;48.148;11.542;2023-02-28T05:25:23;9.77;;;8.10;;
45011;SDS011;63444;48.148;11.542;2023-02-28T05:27:49;12.30;;;8.60;;
45011;SDS011;63444;48.148;11.542;2023-02-28T05:30:15;12.10;;;8.97;;
45011;SDS011;63444;48.148;11.542;2023-02-28T05:32:42;11.83;;;8.47;;
45011;SDS011;63444;48.148;11.542;2023-02-28T05:35:08;9.77;;;8.60;;
45011;SDS011;63444;48.148;11.542;2023-02-28T05:37:36;11.97;;;8.90;;
45011;SDS011;63444;48.148;11.542;2023-02-28T05:40:03;11.80;;;8.90;;
45011;SDS011;63444;48.148;11.542;2023-02-28T05:42:35;10.73;;;9.03;;
45011;SDS011;63444;48.148;11.542;2023-02-28T05:45:02;12.80;;;9.03;;
45011;SDS011;63444;48.148;11.542;2023-02-28T05:47:29;11.20;;;9.00;;
45011;SDS011;63444;48.148;11.542;2023-02-28T05:49:54;9.80;;;8.50;;
45011;SDS011;63444;48.148;11.542;2023-02-28T05:52:20;13.53;;;9.83;;
45011;SDS011;63444;48.148;11.542;2023-02-28T05:54:46;11.97;;;10.10;;
45011;SDS011;63444;48.148;11.542;2023-02-28T05:57:12;12.57;;;10.23;;
45011;SDS011;63444;48.148;11.542;2023-02-28T05:59:38;12.67;;;9.97;;
45011;SDS011;63444;48.148;11.542;2023-02-28T06:02:05;14.07;;;10.53;;
45011;SDS011;63444;48.148;11.542;2023-02-28T06:04:31;12.63;;;10.23;;
45011;SDS011;63444;48.148;11.542;2023-02-28T06:06:57;13.13;;;10.30;;
45011;SDS011;63444;48.148;11.542;2023-02-28T06:09:22;13.33;;;10.23;;
45011;SDS011;63444;48.148;11.542;2023-02-28T06:11:48;15.03;;;10.50;;
45011;SDS011;63444;48.148;11.542;2023-02-28T06:14:15;13.63;;;11.20;;
45011;SDS011;63444;48.148;11.542;2023-02-28T06:16:46;13.63;;;10.93;;
45011;SDS011;63444;48.148;11.542;2023-02-28T06:19:12;16.03;;;12.30;;
45011;SDS011;63444;48.148;11.542;2023-02-28T06:21:38;13.63;;;10.97;;
45011;SDS011;63444;48.148;11.542;2023-02-28T06:24:04;14.60;;;11.60;;
45011;SDS011;63444;48.148;11.542;2023-02-28T06:26:31;15.90;;;11.80;;
45011;SDS011;63444;48.148;11.542;2023-02-28T06:28:57;16.80;;;12.20;;
45011;SDS011;63444;48.148;11.542;2023-02-28T06:31:22;14.07;;;11.93;;
45011;SDS011;63444;48.148;11.542;2023-02-28T06:33:51;17.80;;;13.43;;
45011;SDS011;63444;48.148;11.542;2023-02-28T06:36:16;14.37;;;12.27;;
45011;SDS011;63444;48.148;11.542;2023-02-28T06:38:42;14.73;;;11.70;;
45011;SDS011;63444;48.148;11.542;2023-02-28T06:41:09;15.93;;;12.40;;
45011;SDS011;63444;48.148;11.542;2023-02-28T06:43:38;18.03;;;12.93;;
45011;SDS011;63444;48.148;11.542;2023-02-28T06:46:07;15.20;;;11.87;;
45011;SDS011;63444;48.148;11.542;2023-02-28T06:48:33;17.20;;;12.47;;
45011;SDS011;63444;48.148;11.542;2023-02-28T06:51:06;15.63;;;12.03;;
45011;SDS011;63444;48.148;11.542;2023-02-28T06:53:36;17.13;;;13.03;;
45011;SDS011;63444;48.148;11.542;2023-02-28T06:56:05;17.17;;;12.53;;
45011;SDS011;63444;48.148;11.542;2023-02-28T06:58:32;16.70;;;12.33;;
45011;SDS011;63444;48.148;11.542;2023-02-28T07:00:58;16.57;;;13.07;;
45011;SDS011;63444;48.148;11.542;2023-02-28T07:03:23;14.73;;;11.97;;
45011;SDS011;63444;48.148;11.542;2023-02-28T07:05:49;16.43;;;13.07;;
45011;SDS011;63444;48.148;11.542;2023-02-28T07:08:16;16.87;;;12.80;;
45011;SDS011;63444;48.148;11.542;2023-02-28T07:10:42;18.27;;;11.97;;
45011;SDS011;63444;48.148;11.542;2023-02-28T07:13:10;18.40;;;13.20;;
45011;SDS011;63444;48.148;11.542;2023-02-28T07:15:36;19.17;;;13.07;;
45011;SDS011;63444;48.148;11.542;2023-02-28T07:18:03;16.77;;;12.77;;
45011;SDS011;63444;48.148;11.542;2023-02-28T07:20:30;15.70;;;12.33;;
45011;SDS011;63444;48.148;11.542;2023-02-28T07:22:56;16.00;;;13.23;;
45011;SDS011;63444;48.148;11.542;2023-02-28T07:25:22;14.00;;;11.90;;
45011;SDS011;63444;48.148;11.542;2023-02-28T07:27:49;20.10;;;13.73;;
45011;SDS011;63444;48.148;11.542;2023-02-28T07:30:15;18.07;;;13.83;;
45011;SDS011;63444;48.148;11.542;2023-02-28T07:32:41;21.10;;;14.90;;
45011;SDS011;63444;48.148;11.542;2023-02-28T07:35:06;16.33;;;12.70;;
45011;SDS011;63444;48.148;11.542;2023-02-28T07:37:33;16.20;;;12.10;;
45011;SDS011;63444;48.148;11.542;2023-02-28T07:40:06;19.70;;;14.33;;
45011;SDS011;63444;48.148;11.542;2023-02-28T07:42:34;16.40;;;12.80;;
45011;SDS011;63444;48.148;11.542;2023-02-28T07:45:01;17.47;;;12.97;;
45011;SDS011;63444;48.148;11.542;2023-02-28T07:47:31;15.67;;;13.50;;
45011;SDS011;63444;48.148;11.542;2023-02-28T07:49:57;17.90;;;13.17;;
45011;SDS011;63444;48.148;11.542;2023-02-28T07:52:24;15.83;;;12.53;;
45011;SDS011;63444;48.148;11.542;2023-02-28T07:54:50;14.83;;;12.73;;
45011;SDS011;63444;48.148;11.542;2023-02-28T07:57:16;16.33;;;12.90;;
45011;SDS011;63444;48.148;11.542;2023-02-28T07:59:43;15.20;;;13.37;;
45011;SDS011;63444;48.148;11.542;2023-02-28T08:02:12;17.30;;;12.63;;
45011;SDS011;63444;48.148;11.542;2023-02-28T08:04:39;15.20;;;12.77;;
45011;SDS011;63444;48.148;11.542;2023-02-28T08:07:05;15.37;;;12.27;;
45011;SDS011;63444;48.148;11.542;2023-02-28T08:09:30;16.67;;;12.53;;
45011;SDS011;63444;48.148;11.542;2023-02-28T08:11:56;17.87;;;13.23;;
45011;SDS011;63444;48.148;11.542;2023-02-28T08:14:21;16.00;;;13.30;;
45011;SDS011;63444;48.148;11.542;2023-02-28T08:16:47;16.23;;;12.53;;
45011;SDS011;63444;48.148;11.542;2023-02-28T08:19:13;21.43;;;14.87;;
45011;SDS011;63444;48.148;11.542;2023-02-28T08:21:38;17.13;;;13.40;;
45011;SDS011;63444;48.148;11.542;2023-02-28T08:24:05;16.80;;;13.33;;
45011;SDS011;63444;48.148;11.542;2023-02-28T08:26:31;19.83;;;14.33;;
45011;SDS011;63444;48.148;11.542;2023-02-28T08:28:56;15.77;;;12.70;;
45011;SDS011;63444;48.148;11.542;2023-02-28T08:31:22;18.70;;;14.00;;
45011;SDS011;63444;48.148;11.542;2023-02-28T08:33:48;16.77;;;13.53;;
45011;SDS011;63444;48.148;11.542;2023-02-28T08:36:16;15.93;;;13.47;;
45011;SDS011;63444;48.148;11.542;2023-02-28T08:38:42;21.77;;;13.83;;
45011;SDS011;63444;48.148;11.542;2023-02-28T08:41:09;15.83;;;12.90;;
45011;SDS011;63444;48.148;11.542;2023-02-28T08:43:36;16.50;;;12.90;;
45011;SDS011;63444;48.148;11.542;2023-02-28T08:46:03;17.13;;;13.90;;
45011;SDS011;63444;48.148;11.542;2023-02-28T08:48:30;15.93;;;13.47;;
45011;SDS011;63444;48.148;11.542;2023-02-28T08:51:02;14.60;;;12.67;;
45011;SDS011;63444;48.148;11.542;2023-02-28T08:53:34;16.40;;;12.80;;
45011;SDS011;63444;48.148;11.542;2023-02-28T08:56:01;15.57;;;12.33;;
45011;SDS011;63444;48.148;11.542;2023-02-28T08:58:29;15.13;;;12.97;;
45011;SDS011;63444;48.148;11.542;2023-02-28T09:00:55;15.57;;;12.20;;
45011;SDS011;63444;48.148;11.542;2023-02-28T09:03:21;18.17;;;13.43;;
45011;SDS011;63444;48.148;11.542;2023-02-28T09:05:57;16.93;;;13.13;;
45011;SDS011;63444;48.148;11.542;2023-02-28T09:08:28;19.67;;;13.83;;
45011;SDS011;63444;48.148;11.542;2023-02-28T09:10:55;16.10;;;13.57;;
45011;SDS011;63444;48.148;11.542;2023-02-28T09:13:22;17.37;;;14.67;;
45011;SDS011;63444;48.148;11.542;2023-02-28T09:15:49;17.03;;;13.17;;
45011;SDS011;63444;48.148;11.542;2023-02-28T09:18:14;15.60;;;12.97;;
45011;SDS011;63444;48.148;11.542;2023-02-28T09:20:41;15.77;;;12.73;;
45011;SDS011;63444;48.148;11.542;2023-02-28T09:23:08;14.50;;;12.13;;
45011;SDS011;63444;48.148;11.542;2023-02-28T09:25:35;16.13;;;12.17;;
45011;SDS011;63444;48.148;11.542;2023-02-28T09:28:01;15.87;;;13.27;;
45011;SDS011;63444;48.148;11.542;2023-02-28T09:30:27;16.07;;;12.60;;
45011;SDS011;63444;48.148;11.542;2023-02-28T09:32:53;16.40;;;13.27;;
45011;SDS011;63444;48.148;11.542;2023-02-28T09:35:20;14.07;;;12.57;;
45011;SDS011;63444;48.148;11.542;2023-02-28T09:37:48;17.13;;;13.23;;
45011;SDS011;63444;48.148;11.542;2023-02-28T09:40:20;15.53;;;12.90;;
45011;SDS011;63444;48.148;11.542;2023-02-28T09:42:48;17.67;;;13.17;;
45011;SDS011;63444;48.148;11.542;2023-02-28T09:45:22;15.50;;;12.27;;
45011;SDS011;63444;48.148;11.542;2023-02-28T09:47:52;19.60;;;13.10;;
45011;SDS011;63444;48.148;11.542;2023-02-28T09:50:23;18.23;;;13.67;;
45011;SDS011;63444;48.148;11.542;2023-02-28T09:53:15;16.37;;;12.57;;
45011;SDS011;63444;48.148;11.542;2023-02-28T09:55:45;14.83;;;12.77;;
45011;SDS011;63444;48.148;11.542;2023-02-28T09:58:39;14.80;;;12.13;;
45011;SDS011;63444;48.148;11.542;2023-02-28T10:06:50;18.17;;;13.13;;
45011;SDS011;63444;48.148;11.542;2023-02-28T10:09:22;13.47;;;11.57;;
45011;SDS011;63444;48.148;11.542;2023-02-28T10:11:52;15.77;;;13.07;;
45011;SDS011;63444;48.148;11.542;2023-02-28T10:14:23;16.20;;;11.73;;
45011;SDS011;63444;48.148;11.542;2023-02-28T10:17:04;13.63;;;11.93;;
45011;SDS011;63444;48.148;11.542;2023-02-28T10:19:44;15.93;;;12.23;;
45011;SDS011;63444;48.148;11.542;2023-02-28T10:22:26;17.40;;;12.87;;
45011;SDS011;63444;48.148;11.542;2023-02-28T10:25:19;15.33;;;12.30;;
45011;SDS011;63444;48.148;11.542;2023-02-28T10:27:46;13.83;;;12.37;;
45011;SDS011;63444;48.148;11.542;2023-02-28T10:30:12;18.30;;;12.03;;
45011;SDS011;63444;48.148;11.542;2023-02-28T10:32:39;15.80;;;12.40;;
45011;SDS011;63444;48.148;11.542;2023-02-28T10:35:20;16.47;;;12.00;;
45011;SDS011;63444;48.148;11.542;2023-02-28T10:37:53;12.73;;;11.43;;
45011;SDS011;63444;48.148;11.542;2023-02-28T10:42:56;13.70;;;11.23;;
45011;SDS011;63444;48.148;11.542;2023-02-28T10:45:23;15.83;;;10.53;;
45011;SDS011;63444;48.148;11.542;2023-02-28T10:48:04;12.60;;;11.30;;
45011;SDS011;63444;48.148;11.542;2023-02-28T11:03:57;15.17;;;11.67;;
45011;SDS011;63444;48.148;11.542;2023-02-28T11:06:31;15.73;;;11.03;;
45011;SDS011;63444;48.148;11.542;2023-02-28T11:08:59;15.80;;;11.67;;
45011;SDS011;63444;48.148;11.542;2023-02-28T11:11:40;14.97;;;10.00;;
45011;SDS011;63444;48.148;11.542;2023-02-28T11:14:17;13.00;;;10.67;;
45011;SDS011;63444;48.148;11.542;2023-02-28T11:16:50;13.87;;;10.20;;
45011;SDS011;63444;48.148;11.542;2023-02-28T11:19:39;12.30;;;10.27;;
45011;SDS011;63444;48.148;11.542;2023-02-28T11:22:09;11.33;;;9.80;;
45011;SDS011;63444;48.148;11.542;2023-02-28T11:24:43;12.53;;;10.23;;
45011;SDS011;63444;48.148;11.542;2023-02-28T11:30:24;11.70;;;10.43;;
45011;SDS011;63444;48.148;11.542;2023-02-28T11:32:56;13.87;;;11.10;;
45011;SDS011;63444;48.148;11.542;2023-02-28T11:35:31;15.63;;;10.73;;
45011;SDS011;63444;48.148;11.542;2023-02-28T11:38:01;13.17;;;10.33;;
45011;SDS011;63444;48.148;11.542;2023-02-28T11:48:47;11.50;;;10.10;;
45011;SDS011;63444;48.148;11.542;2023-02-28T11:51:28;13.17;;;10.17;;
45011;SDS011;63444;48.148;11.542;2023-02-28T11:54:52;11.00;;;9.63;;
45011;SDS011;63444;48.148;11.542;2023-02-28T11:57:22;11.73;;;9.80;;
45011;SDS011;63444;48.148;11.542;2023-02-28T12:05:38;11.80;;;9.00;;
45011;SDS011;63444;48.148;11.542;2023-02-28T12:11:07;10.40;;;8.70;;
45011;SDS011;63444;48.148;11.542;2023-02-28T12:13:53;11.77;;;9.57;;
45011;SDS011;63444;48.148;11.542;2023-02-28T12:16:45;12.87;;;9.50;;
45011;SDS011;63444;48.148;11.542;2023-02-28T12:19:38;10.27;;;9.17;;
45011;SDS011;63444;48.148;11.542;2023-02-28T12:22:27;10.00;;;8.83;;
45011;SDS011;63444;48.148;11.542;2023-02-28T12:27:46;10.87;;;9.47;;
45011;SDS011;63444;48.148;11.542;2023-02-28T12:30:16;11.20;;;9.27;;
45011;SDS011;63444;48.148;11.542;2023-02-28T12:33:07;12.30;;;9.17;;
45011;SDS011;63444;48.148;11.542;2023-02-28T12:35:38;10.97;;;9.07;;
45011;SDS011;63444;48.148;11.542;2023-02-28T12:38:14;10.70;;;9.50;;
45011;SDS011;63444;48.148;11.542;2023-02-28T12:40:52;10.70;;;9.07;;
45011;SDS011;63444;48.148;11.542;2023-02-28T12:43:44;10.17;;;8.70;;
45011;SDS011;63444;48.148;11.542;2023-02-28T12:46:19;10.23;;;9.00;;
45011;SDS011;63444;48.148;11.542;2023-02-28T12:48:52;11.07;;;8.83;;
45011;SDS011;63444;48.148;11.542;2023-02-28T12:51:21;10.43;;;8.50;;
45011;SDS011;63444;48.148;11.542;2023-02-28T12:53:55;10.43;;;9.33;;
45011;SDS011;63444;48.148;11.542;2023-02-28T13:02:31;9.73;;;8.70;;
45011;SDS011;63444;48.148;11.542;2023-02-28T13:10:52;12.33;;;9.60;;
45011;SDS011;63444;48.148;11.542;2023-02-28T13:13:21;10.63;;;9.13;;
45011;SDS011;63444;48.148;11.542;2023-02-28T13:16:01;9.83;;;8.80;;
45011;SDS011;63444;48.148;11.542;2023-02-28T13:18:45;9.17;;;8.17;;
45011;SDS011;63444;48.148;11.542;2023-02-28T13:21:28;10.80;;;9.13;;
45011;SDS011;63444;48.148;11.542;2023-02-28T13:28:59;9.97;;;8.80;;
45011;SDS011;63444;48.148;11.542;2023-02-28T13:31:29;11.23;;;10.00;;
45011;SDS011;63444;48.148;11.542;2023-02-28T13:36:30;14.20;;;9.63;;
45011;SDS011;63444;48.148;11.542;2023-02-28T13:38:57;11.57;;;9.93;;
45011;SDS011;63444;48.148;11.542;2023-02-28T13:44:07;13.63;;;10.20;;
45011;SDS011;63444;48.148;11.542;2023-02-28T13:46:37;10.43;;;9.37;;
45011;SDS011;63444;48.148;11.542;2023-02-28T13:49:27;14.30;;;9.93;;
45011;SDS011;63444;48.148;11.542;2023-02-28T13:54:39;11.07;;;9.57;;
45011;SDS011;63444;48.148;11.542;2023-02-28T14:05:21;9.87;;;8.57;;
45011;SDS011;63444;48.148;11.542;2023-02-28T14:07:52;10.73;;;9.00;;
45011;SDS011;63444;48.148;11.542;2023-02-28T14:10:23;12.20;;;8.50;;
45011;SDS011;63444;48.148;11.542;2023-02-28T14:12:56;10.10;;;8.80;;
45011;SDS011;63444;48.148;11.542;2023-02-28T14:18:14;11.03;;;9.17;;
45011;SDS011;63444;48.148;11.542;2023-02-28T14:20:47;9.87;;;8.87;;
45011;SDS011;63444;48.148;11.542;2023-02-28T14:23:30;12.87;;;9.30;;
45011;SDS011;63444;48.148;11.542;2023-02-28T14:32:02;12.30;;;9.43;;
45011;SDS011;63444;48.148;11.542;2023-02-28T14:37:16;14.63;;;9.60;;
45011;SDS011;63444;48.148;11.542;2023-02-28T14:39:49;9.53;;;8.53;;
45011;SDS011;63444;48.148;11.542;2023-02-28T14:42:29;16.27;;;10.03;;
45011;SDS011;63444;48.148;11.542;2023-02-28T14:44:57;14.20;;;10.10;;
45011;SDS011;63444;48.148;11.542;2023-02-28T14:47:28;10.87;;;9.73;;
45011;SDS011;63444;48.148;11.542;2023-02-28T14:50:01;10.70;;;9.47;;
45011;SDS011;63444;48.148;11.542;2023-02-28T14:52:29;10.57;;;9.47;;
45011;SDS011;63444;48.148;11.542;2023-02-28T14:55:03;11.73;;;9.57;;
45011;SDS011;63444;48.148;11.542;2023-02-28T14:57:33;11.87;;;9.70;;
45011;SDS011;63444;48.148;11.542;2023-02-28T15:00:09;10.30;;;9.20;;
45011;SDS011;63444;48.148;11.542;2023-02-28T15:02:39;9.90;;;8.93;;
45011;SDS011;63444;48.148;11.542;2023-02-28T15:07:35;10.93;;;8.30;;
45011;SDS011;63444;48.148;11.542;2023-02-28T15:10:08;12.30;;;9.03;;
45011;SDS011;63444;48.148;11.542;2023-02-28T15:12:58;11.00;;;9.77;;
45011;SDS011;63444;48.148;11.542;2023-02-28T15:15:28;11.17;;;8.60;;
45011;SDS011;63444;48.148;11.542;2023-02-28T15:18:02;10.17;;;8.87;;
45011;SDS011;63444;48.148;11.542;2023-02-28T15:20:31;11.00;;;9.87;;
45011;SDS011;63444;48.148;11.542;2023-02-28T15:22:58;12.33;;;9.80;;
45011;SDS011;63444;48.148;11.542;2023-02-28T15:25:24;10.90;;;9.03;;
45011;SDS011;63444;48.148;11.542;2023-02-28T15:27:55;11.20;;;9.63;;
45011;SDS011;63444;48.148;11.542;2023-02-28T15:30:29;11.57;;;9.70;;
45011;SDS011;63444;48.148;11.542;2023-02-28T15:35:43;11.93;;;9.57;;
45011;SDS011;63444;48.148;11.542;2023-02-28T15:38:25;11.40;;;9.73;;
45011;SDS011;63444;48.148;11.542;2023-02-28T15:40:56;11.40;;;10.20;;
45011;SDS011;63444;48.148;11.542;2023-02-28T15:43:26;15.47;;;11.37;;
45011;SDS011;63444;48.148;11.542;2023-02-28T15:45:58;10.23;;;9.13;;
45011;SDS011;63444;48.148;11.542;2023-02-28T15:48:36;14.77;;;10.20;;
45011;SDS011;63444;48.148;11.542;2023-02-28T15:51:09;10.97;;;8.83;;
45011;SDS011;63444;48.148;11.542;2023-02-28T15:56:26;12.20;;;9.60;;
45011;SDS011;63444;48.148;11.542;2023-02-28T15:58:58;10.27;;;9.17;;
45011;SDS011;63444;48.148;11.542;2023-02-28T16:01:35;10.17;;;9.17;;
45011;SDS011;63444;48.148;11.542;2023-02-28T16:04:06;10.80;;;9.07;;
45011;SDS011;63444;48.148;11.542;2023-02-28T16:06:42;12.27;;;10.03;;
45011;SDS011;63444;48.148;11.542;2023-02-28T16:09:10;11.17;;;9.43;;
45011;SDS011;63444;48.148;11.542;2023-02-28T16:11:41;10.73;;;9.27;;
45011;SDS011;63444;48.148;11.542;2023-02-28T16:14:13;12.43;;;10.63;;
45011;SDS011;63444;48.148;11.542;2023-02-28T16:16:45;11.50;;;9.00;;
45011;SDS011;63444;48.148;11.542;2023-02-28T16:19:12;12.70;;;10.43;;
45011;SDS011;63444;48.148;11.542;2023-02-28T16:21:38;11.10;;;9.63;;
45011;SDS011;63444;48.148;11.542;2023-02-28T16:24:04;13.37;;;9.40;;
45011;SDS011;63444;48.148;11.542;2023-02-28T16:26:30;11.07;;;9.57;;
45011;SDS011;63444;48.148;11.542;2023-02-28T16:28:59;11.63;;;10.37;;
45011;SDS011;63444;48.148;11.542;2023-02-28T16:31:25;13.03;;;10.40;;
45011;SDS011;63444;48.148;11.542;2023-02-28T16:33:51;11.87;;;9.87;;
45011;SDS011;63444;48.148;11.542;2023-02-28T16:36:18;12.87;;;9.80;;
45011;SDS011;63444;48.148;11.542;2023-02-28T16:38:45;12.57;;;10.70;;
45011;SDS011;63444;48.148;11.542;2023-02-28T16:41:18;12.30;;;9.93;;
45011;SDS011;63444;48.148;11.542;2023-02-28T16:43:46;10.60;;;9.50;;
45011;SDS011;63444;48.148;11.542;2023-02-28T16:46:13;14.83;;;10.50;;